Time;durP1;ratioP1;P1;durP2;ratioP2;P2;SDS_P1;SDS_P2;PMS_P1;PMS_P2;Temp;Humidity;BMP_temperature;BMP_pressure;BME280_temperature;BME280_humidity;BME280_pressure;Samples;Min_cycle;Max_cycle;Signal;HPM_P1;HPM_P2
2023/05/28 00:00:01;;;;;;;5.93;5.47;;;;;;;18.66;100.00;99157.06;5032052;28;20657;-76
2023/05/28 00:02:32;;;;;;;5.37;4.90;;;;;;;18.62;100.00;99158.63;5030435;28;20194;-76
2023/05/28 00:05:10;;;;;;;4.93;4.50;;;;;;;18.60;100.00;99147.31;5031710;28;20631;-76
2023/05/28 00:07:43;;;;;;;5.17;4.77;;;;;;;18.55;100.00;99152.66;5031572;28;20233;-76
2023/05/28 00:13:01;;;;;;;4.47;4.27;;;;;;;18.54;100.00;99165.28;5035637;28;20203;-77
2023/05/28 00:21:34;;;;;;;4.80;4.50;;;;;;;18.55;100.00;99171.47;5036055;28;20208;-76
2023/05/28 00:27:01;;;;;;;5.20;4.70;;;;;;;18.62;100.00;99167.50;5035363;28;20309;-77
2023/05/28 00:29:35;;;;;;;4.10;3.90;;;;;;;18.58;100.00;99165.59;5047823;28;20212;-77
2023/05/28 00:32:13;;;;;;;4.77;4.30;;;;;;;18.60;100.00;99158.06;5055038;28;20763;-78
2023/05/28 00:34:59;;;;;;;5.73;4.40;;;;;;;18.52;100.00;99162.03;5032117;28;20296;-77
2023/05/28 00:40:17;;;;;;;4.90;4.40;;;;;;;18.46;100.00;99156.88;5032533;28;20629;-78
2023/05/28 00:43:05;;;;;;;4.73;4.43;;;;;;;18.52;100.00;99156.66;5033220;28;20662;-77
2023/05/28 00:45:38;;;;;;;6.57;4.30;;;;;;;18.51;99.92;99162.28;5014573;28;20728;-77
2023/05/28 00:51:04;;;;;;;4.40;3.73;;;;;;;18.55;100.00;99150.78;5033067;28;20220;-77
2023/05/28 00:53:56;;;;;;;4.17;3.87;;;;;;;18.51;100.00;99154.22;5015794;28;20208;-77
2023/05/28 00:56:26;;;;;;;4.43;4.13;;;;;;;18.51;100.00;99155.03;5032962;28;20205;-76
2023/05/28 00:58:55;;;;;;;4.07;3.73;;;;;;;18.62;100.00;99145.19;5009511;28;20263;-75
2023/05/28 01:01:28;;;;;;;4.40;4.03;;;;;;;18.65;100.00;99144.66;5012600;28;20201;-76
2023/05/28 01:03:58;;;;;;;4.17;3.90;;;;;;;18.61;100.00;99140.84;5010005;28;20233;-76
2023/05/28 01:06:28;;;;;;;4.40;4.13;;;;;;;18.58;100.00;99141.38;5013621;28;20198;-76
2023/05/28 01:08:59;;;;;;;3.63;3.43;;;;;;;18.56;99.54;99135.44;5012270;28;20194;-77
2023/05/28 01:11:28;;;;;;;4.20;3.90;;;;;;;18.56;98.44;99130.88;5000501;28;20198;-77
2023/05/28 01:14:10;;;;;;;3.50;3.40;;;;;;;18.63;98.11;99133.34;5029846;28;20187;-79
2023/05/28 01:16:48;;;;;;;3.87;3.67;;;;;;;18.67;99.75;99126.38;5032485;28;20253;-78
2023/05/28 01:19:35;;;;;;;5.83;3.77;;;;;;;18.67;99.50;99126.38;4991659;28;20657;-79
2023/05/28 01:22:18;;;;;;;4.30;4.00;;;;;;;18.61;99.84;99132.78;4976477;28;20199;-78
2023/05/28 01:24:52;;;;;;;4.33;4.07;;;;;;;18.53;99.96;99117.94;4991444;28;20208;-77
2023/05/28 01:27:29;;;;;;;4.43;3.63;;;;;;;18.52;99.73;99127.06;4990616;28;20217;-77
2023/05/28 01:30:09;;;;;;;6.17;4.03;;;;;;;18.50;99.18;99125.72;4990244;28;20218;-78
2023/05/28 01:38:43;;;;;;;4.43;4.07;;;;;;;18.26;99.18;99113.59;4992169;28;20197;-78
2023/05/28 01:41:20;;;;;;;4.50;4.30;;;;;;;18.17;99.67;99110.56;4989385;28;20226;-78
2023/05/28 01:44:12;;;;;;;3.63;3.37;;;;;;;18.29;97.96;99118.50;4975488;28;20199;-79
2023/05/28 01:47:00;;;;;;;3.70;3.40;;;;;;;18.26;96.87;99129.75;4990513;28;20198;-79
2023/05/28 01:49:53;;;;;;;4.60;3.63;;;;;;;18.16;95.85;99113.50;4991868;28;20245;-79
2023/05/28 01:52:22;;;;;;;4.57;3.50;;;;;;;18.23;95.16;99131.06;4989221;28;20238;-79
2023/05/28 01:57:52;;;;;;;4.20;3.43;;;;;;;18.35;93.80;99120.19;4992037;28;20187;-79
2023/05/28 02:00:22;;;;;;;3.70;3.43;;;;;;;18.37;94.88;99116.16;4991895;28;20293;-79
2023/05/28 02:02:57;;;;;;;3.30;3.10;;;;;;;18.35;94.41;99122.88;4993567;28;20270;-78
2023/05/28 02:05:30;;;;;;;3.97;3.77;;;;;;;18.31;93.90;99121.72;4991742;28;20198;-79
2023/05/28 02:08:07;;;;;;;3.97;3.73;;;;;;;18.30;93.98;99118.22;4992185;28;20290;-78
2023/05/28 02:10:38;;;;;;;3.93;3.63;;;;;;;18.35;93.30;99122.88;5029142;28;20278;-79
2023/05/28 02:13:10;;;;;;;3.60;3.30;;;;;;;18.31;93.14;99116.34;5030791;28;20291;-79
2023/05/28 02:15:37;;;;;;;4.27;3.60;;;;;;;18.33;93.07;99114.22;5033420;28;20203;-79
2023/05/28 02:18:19;;;;;;;3.57;3.37;;;;;;;18.18;92.60;99103.31;5033370;28;20216;-78
2023/05/28 02:20:53;;;;;;;6.27;4.27;;;;;;;18.11;92.57;99110.75;5033826;28;20277;-78
2023/05/28 02:26:22;;;;;;;4.10;3.80;;;;;;;18.05;92.02;99107.19;5051521;28;20627;-79
2023/05/28 02:29:02;;;;;;;3.50;3.30;;;;;;;18.04;92.32;99110.16;5053518;28;20271;-79
2023/05/28 02:31:32;;;;;;;3.40;3.20;;;;;;;17.96;91.99;99107.91;5053285;28;20666;-78
2023/05/28 02:34:25;;;;;;;3.77;3.20;;;;;;;18.00;91.73;99114.41;5050560;28;20272;-79
2023/05/28 02:37:11;;;;;;;4.40;4.00;;;;;;;18.00;91.83;99114.41;5042397;28;20208;-78
2023/05/28 02:39:45;;;;;;;3.87;3.67;;;;;;;18.06;91.71;99108.03;5032255;28;20229;-79
2023/05/28 02:42:17;;;;;;;7.60;3.77;;;;;;;18.02;91.48;99112.28;5033022;28;20231;-78
2023/05/28 02:44:50;;;;;;;5.60;3.60;;;;;;;17.99;92.28;99107.41;5015601;28;20201;-79
2023/05/28 02:47:25;;;;;;;6.03;3.60;;;;;;;18.04;91.54;99112.84;5033010;28;20190;-78
2023/05/28 02:49:57;;;;;;;4.17;3.87;;;;;;;18.02;91.61;99117.66;5051218;28;20228;-78
2023/05/28 02:52:44;;;;;;;4.33;3.73;;;;;;;18.03;91.19;99119.28;5051708;28;20238;-78
2023/05/28 02:55:12;;;;;;;4.37;4.07;;;;;;;18.19;91.33;99118.38;5053345;28;20278;-78
2023/05/28 02:57:42;;;;;;;4.30;4.00;;;;;;;18.32;90.83;99120.66;5052057;28;20193;-80
2023/05/28 03:00:15;;;;;;;5.80;5.30;;;;;;;18.48;91.88;99125.97;5052690;28;20189;-80
2023/05/28 03:02:48;;;;;;;5.77;5.47;;;;;;;18.62;90.93;99135.22;5052860;28;20201;-80
2023/05/28 03:05:17;;;;;;;5.33;4.83;;;;;;;18.61;91.04;99138.16;5039270;28;20268;-80
2023/05/28 03:07:46;;;;;;;4.60;4.30;;;;;;;18.78;90.37;99149.63;5046126;28;20195;-79
2023/05/28 03:10:27;;;;;;;4.47;4.17;;;;;;;18.96;90.53;99151.91;5052672;28;20229;-78
2023/05/28 03:13:08;;;;;;;4.50;4.20;;;;;;;19.07;90.85;99154.41;5051396;28;20713;-78
2023/05/28 03:15:41;;;;;;;4.10;3.90;;;;;;;19.21;90.64;99146.69;5084621;28;20193;-78
2023/05/28 03:21:11;;;;;;;4.30;4.10;;;;;;;19.40;92.35;99153.31;5032514;28;20283;-77
2023/05/28 03:26:29;;;;;;;5.00;4.60;;;;;;;19.48;92.79;99152.81;5032445;28;20201;-78
2023/05/28 03:29:00;;;;;;;4.63;4.40;;;;;;;19.53;92.58;99150.16;5032324;28;20209;-78
2023/05/28 03:31:48;;;;;;;4.40;4.20;;;;;;;19.57;92.53;99153.94;5039331;28;20247;-78
2023/05/28 03:34:20;;;;;;;7.00;4.63;;;;;;;19.55;92.47;99153.38;5050745;28;20197;-78
2023/05/28 03:36:54;;;;;;;5.07;4.03;;;;;;;19.57;93.36;99170.09;5051887;28;20237;-79
2023/05/28 03:39:29;;;;;;;4.33;3.93;;;;;;;19.58;93.72;99160.94;5052291;28;20647;-78
2023/05/28 03:42:00;;;;;;;4.00;3.80;;;;;;;19.56;92.78;99157.72;5050336;28;20661;-79
2023/05/28 03:44:35;;;;;;;4.13;3.83;;;;;;;19.51;92.80;99163.06;5050977;28;20199;-78
2023/05/28 03:50:01;;;;;;;5.30;4.53;;;;;;;19.38;94.72;99171.59;5051184;28;20226;-78
2023/05/28 03:52:46;;;;;;;4.60;4.23;;;;;;;19.30;95.15;99154.06;5046601;28;20701;-78
2023/05/28 03:55:35;;;;;;;4.73;4.33;;;;;;;19.23;95.83;99147.22;5016314;28;20258;-79
2023/05/28 03:58:16;;;;;;;5.20;4.90;;;;;;;19.21;96.07;99165.53;5032314;28;20692;-78
2023/05/28 04:00:53;;;;;;;5.23;4.77;;;;;;;19.10;95.71;99171.91;5034918;28;20215;-79
2023/05/28 04:06:24;;;;;;;4.97;4.67;;;;;;;19.00;95.39;99169.16;5012195;28;20288;-78
2023/05/28 04:09:01;;;;;;;5.90;5.40;;;;;;;18.91;96.16;99170.72;5040364;28;20200;-78
2023/05/28 04:14:51;;;;;;;5.27;4.87;;;;;;;19.04;96.61;99181.03;5031849;28;20596;-78
2023/05/28 04:17:29;;;;;;;5.43;5.03;;;;;;;19.05;96.17;99183.47;5032171;28;20205;-78
2023/05/28 04:20:13;;;;;;;5.43;5.03;;;;;;;19.03;98.20;99187.50;5030861;28;20661;-79
2023/05/28 04:22:56;;;;;;;5.77;5.17;;;;;;;19.06;96.41;99192.34;5031981;28;20209;-79
2023/05/28 04:25:28;;;;;;;4.93;4.50;;;;;;;19.04;96.41;99192.59;5010692;28;20240;-79
2023/05/28 04:28:01;;;;;;;5.20;4.80;;;;;;;19.02;96.89;99193.94;5026705;28;20207;-78
2023/05/28 04:30:47;;;;;;;4.83;4.53;;;;;;;19.04;96.46;99197.19;5013650;28;20228;-79
2023/05/28 04:33:20;;;;;;;4.70;4.40;;;;;;;19.05;97.38;99201.50;5031120;28;20642;-78
2023/05/28 04:35:51;;;;;;;6.80;5.37;;;;;;;19.00;96.99;99196.91;5034811;28;20287;-77
2023/05/28 04:38:18;;;;;;;5.23;4.90;;;;;;;18.89;97.92;99199.75;5051800;28;20258;-78
2023/05/28 04:40:49;;;;;;;5.23;4.83;;;;;;;18.78;98.00;99200.75;5050249;28;20200;-78
2023/05/28 04:43:18;;;;;;;5.77;5.17;;;;;;;18.73;97.24;99211.44;5051398;28;20191;-79
2023/05/28 04:45:54;;;;;;;5.60;5.10;;;;;;;18.75;98.02;99215.50;5083553;28;20191;-78
2023/05/28 04:48:36;;;;;;;5.40;5.10;;;;;;;18.84;98.25;99221.25;5041883;28;20268;-79
2023/05/28 04:54:05;;;;;;;5.87;5.53;;;;;;;19.01;97.14;99220.06;5030794;28;20321;-77
2023/05/28 04:56:37;;;;;;;5.27;5.00;;;;;;;19.09;96.84;99229.53;5031328;28;20685;-77
2023/05/28 04:59:15;;;;;;;5.53;5.23;;;;;;;19.14;96.53;99226.88;5035025;28;20203;-78
2023/05/28 05:01:54;;;;;;;5.23;4.93;;;;;;;19.12;96.56;99227.13;5015412;28;20234;-78
2023/05/28 05:04:35;;;;;;;6.50;5.50;;;;;;;19.08;95.70;99222.53;5020435;28;20284;-81
2023/05/28 05:07:26;;;;;;;5.37;5.07;;;;;;;18.96;97.58;99227.28;5034728;28;20282;-76
2023/05/28 05:09:57;;;;;;;5.40;5.00;;;;;;;18.91;98.43;99222.66;5034760;28;20266;-73
2023/05/28 05:12:24;;;;;;;6.23;5.63;;;;;;;18.83;99.21;99215.03;5034504;28;20198;-73
2023/05/28 05:14:51;;;;;;;5.40;5.10;;;;;;;18.80;99.41;99217.44;5034415;28;20735;-74
2023/05/28 05:17:17;;;;;;;5.77;5.30;;;;;;;18.87;99.51;99218.84;5034834;28;20199;-72
2023/05/28 05:19:44;;;;;;;5.87;5.40;;;;;;;18.89;98.27;99221.28;5051889;28;20197;-73
2023/05/28 05:22:12;;;;;;;5.30;4.87;;;;;;;18.78;98.44;99230.34;5054057;28;20198;-72
2023/05/28 05:24:39;;;;;;;5.23;4.93;;;;;;;18.78;97.92;99228.47;5053909;28;20566;-73
2023/05/28 05:27:06;;;;;;;5.57;5.27;;;;;;;18.95;97.52;99231.03;5054679;28;20201;-72
2023/05/28 05:29:32;;;;;;;6.50;5.13;;;;;;;19.02;97.19;99226.25;5055039;28;20228;-71
2023/05/28 05:31:59;;;;;;;5.23;4.77;;;;;;;19.24;98.53;99235.88;5035642;28;20709;-75
2023/05/28 05:34:26;;;;;;;4.50;4.30;;;;;;;19.51;97.37;99235.78;5033666;28;20189;-75
2023/05/28 05:36:53;;;;;;;5.00;4.70;;;;;;;19.87;95.56;99240.31;5033603;28;20782;-74
2023/05/28 05:39:21;;;;;;;5.10;4.37;;;;;;;20.14;93.00;99235.66;5034387;28;20201;-75
2023/05/28 05:41:47;;;;;;;9.70;3.93;;;;;;;20.47;88.70;99259.50;5033099;28;20197;-71
2023/05/28 05:44:14;;;;;;;8.20;4.57;;;;;;;20.74;86.71;99268.19;5051215;28;20197;-72
2023/05/28 05:46:41;;;;;;;5.27;4.90;;;;;;;20.94;86.88;99262.84;5034134;28;20586;-78
2023/05/28 05:49:07;;;;;;;5.57;5.17;;;;;;;20.81;87.23;99259.81;5034187;28;20193;-74
2023/05/28 05:51:34;;;;;;;5.07;4.70;;;;;;;20.80;87.71;99263.63;5032883;28;20225;-74
2023/05/28 05:54:01;;;;;;;5.00;4.70;;;;;;;20.69;87.10;99270.88;5033746;28;20194;-70
2023/05/28 05:56:29;;;;;;;4.47;4.27;;;;;;;20.42;89.39;99267.59;5014002;28;20292;-74
2023/05/28 05:58:56;;;;;;;5.47;5.00;;;;;;;20.31;90.29;99268.63;5013686;28;20194;-70
2023/05/28 06:01:22;;;;;;;5.70;5.33;;;;;;;20.13;91.39;99271.75;5016509;28;20271;-73
2023/05/28 06:03:49;;;;;;;5.30;4.90;;;;;;;19.90;91.86;99266.78;5033784;28;20276;-73
2023/05/28 06:06:16;;;;;;;5.50;4.80;;;;;;;19.85;92.79;99277.53;5033013;28;20197;-72
2023/05/28 06:08:43;;;;;;;5.30;4.80;;;;;;;19.76;93.12;99265.59;5032742;28;20661;-72
2023/05/28 06:11:10;;;;;;;6.23;5.33;;;;;;;19.77;93.91;99272.63;5033540;28;20229;-73
2023/05/28 06:13:38;;;;;;;5.07;4.87;;;;;;;19.71;94.40;99273.66;5033404;28;20251;-73
2023/05/28 06:16:06;;;;;;;5.10;4.70;;;;;;;19.71;95.44;99273.66;5032281;28;20254;-73
2023/05/28 06:18:33;;;;;;;7.17;4.77;;;;;;;19.76;95.25;99271.00;5040690;28;20656;-74
2023/05/28 06:21:00;;;;;;;4.90;4.40;;;;;;;19.75;94.86;99272.06;5053410;28;20584;-73
2023/05/28 06:23:26;;;;;;;7.33;4.50;;;;;;;19.73;94.47;99274.22;5053904;28;20581;-73
2023/05/28 06:25:53;;;;;;;4.50;4.07;;;;;;;19.65;95.63;99269.31;5053062;28;20197;-74
2023/05/28 06:28:20;;;;;;;5.13;4.43;;;;;;;19.62;96.45;99264.44;5053329;28;20197;-74
2023/05/28 06:30:48;;;;;;;5.10;4.70;;;;;;;19.67;96.30;99272.56;5041509;28;20221;-73
2023/05/28 06:33:15;;;;;;;4.63;4.30;;;;;;;19.65;95.29;99263.94;5032642;28;20215;-73
2023/05/28 06:35:42;;;;;;;4.10;3.90;;;;;;;19.67;97.23;99267.16;5033285;28;20229;-71
2023/05/28 06:38:09;;;;;;;5.07;4.77;;;;;;;19.68;96.54;99258.00;5033271;28;20251;-72
2023/05/28 06:40:35;;;;;;;4.73;4.30;;;;;;;19.75;96.75;99256.72;5032971;28;20722;-75
2023/05/28 06:43:09;;;;;;;4.73;4.33;;;;;;;19.79;95.33;99265.09;5032911;28;20193;-74
2023/05/28 06:45:37;;;;;;;5.00;4.37;;;;;;;19.87;95.50;99256.50;5032017;28;20211;-73
2023/05/28 06:48:08;;;;;;;4.47;4.03;;;;;;;19.96;95.04;99249.53;5031465;28;20697;-72
2023/05/28 06:50:35;;;;;;;5.00;4.10;;;;;;;20.05;94.37;99256.06;5033007;28;20199;-74
2023/05/28 06:53:05;;;;;;;4.80;4.50;;;;;;;20.20;93.75;99256.16;5030634;28;20208;-76
2023/05/28 06:55:32;;;;;;;4.20;3.90;;;;;;;20.35;93.59;99264.31;5047650;28;20196;-76
2023/05/28 06:58:00;;;;;;;4.70;4.30;;;;;;;20.48;92.05;99258.41;5051910;28;20583;-72
2023/05/28 07:00:27;;;;;;;4.03;3.83;;;;;;;20.51;91.09;99274.09;5052264;28;20584;-71
2023/05/28 07:02:54;;;;;;;4.20;3.90;;;;;;;20.53;92.53;99271.91;5051802;28;20203;-70
2023/05/28 07:05:22;;;;;;;5.47;4.60;;;;;;;20.58;92.99;99266.53;5038497;28;20193;-69
2023/05/28 07:07:48;;;;;;;4.53;3.83;;;;;;;20.73;92.83;99273.84;5048657;28;20278;-70
2023/05/28 07:10:15;;;;;;;4.20;3.87;;;;;;;20.77;92.67;99278.47;5051404;28;20201;-69
2023/05/28 07:12:42;;;;;;;4.20;3.90;;;;;;;20.79;92.90;99273.63;5052325;28;20228;-70
2023/05/28 07:15:10;;;;;;;4.47;3.80;;;;;;;20.74;91.27;99265.50;5043234;28;20197;-70
2023/05/28 07:17:36;;;;;;;6.57;3.77;;;;;;;20.74;94.19;99268.19;5030566;28;20263;-64
2023/05/28 07:20:04;;;;;;;7.63;3.47;;;;;;;21.03;92.13;99265.84;5029357;28;20669;-64
2023/05/28 07:22:32;;;;;;;3.80;3.60;;;;;;;21.41;88.88;99260.72;5031058;28;20741;-64
2023/05/28 07:24:59;;;;;;;3.70;3.50;;;;;;;21.71;87.69;99268.00;5035257;28;20250;-64
2023/05/28 07:27:25;;;;;;;3.53;3.30;;;;;;;21.89;87.06;99262.81;5051320;28;20201;-64
2023/05/28 07:29:52;;;;;;;4.47;3.80;;;;;;;22.00;84.36;99269.81;5051054;28;20196;-64
2023/05/28 07:32:19;;;;;;;3.70;3.40;;;;;;;22.11;85.53;99266.00;5051835;28;20220;-63
2023/05/28 07:34:45;;;;;;;3.53;3.07;;;;;;;22.28;84.07;99268.38;5051300;28;20269;-63
2023/05/28 07:37:12;;;;;;;4.90;3.50;;;;;;;22.35;83.42;99268.88;5044038;28;20186;-65
2023/05/28 07:39:40;;;;;;;4.00;3.40;;;;;;;22.45;82.47;99269.66;5031774;28;20197;-63
2023/05/28 07:42:07;;;;;;;4.20;3.80;;;;;;;22.51;82.18;99270.47;5028357;28;20554;-63
2023/05/28 07:44:34;;;;;;;6.60;3.47;;;;;;;22.40;82.94;99275.09;5031928;28;20203;-63
2023/05/28 07:47:01;;;;;;;4.20;3.50;;;;;;;22.40;84.19;99280.50;5031024;28;20665;-64
2023/05/28 07:49:27;;;;;;;5.77;4.20;;;;;;;22.17;83.67;99285.75;5038493;28;20207;-62
2023/05/28 07:51:55;;;;;;;4.30;3.90;;;;;;;22.21;85.18;99270.59;5051717;28;20231;-64
2023/05/28 07:54:22;;;;;;;3.47;3.17;;;;;;;22.52;84.62;99286.44;5051949;28;20224;-65
2023/05/28 07:56:50;;;;;;;4.37;3.80;;;;;;;22.73;83.56;99285.25;5051404;28;20196;-66
2023/05/28 07:59:17;;;;;;;3.60;3.40;;;;;;;22.83;82.51;99285.16;5040332;28;20202;-71
2023/05/28 08:01:45;;;;;;;4.57;4.10;;;;;;;22.76;80.62;99279.28;5021653;28;20691;-71
2023/05/28 08:04:12;;;;;;;3.87;3.57;;;;;;;22.67;82.29;99278.22;5019532;28;20584;-70
2023/05/28 08:06:39;;;;;;;3.97;3.67;;;;;;;22.49;81.27;99286.16;5031643;28;20198;-73
2023/05/28 08:09:05;;;;;;;3.00;2.80;;;;;;;22.23;82.53;99277.34;5037795;28;20212;-73
2023/05/28 08:11:32;;;;;;;5.10;3.17;;;;;;;22.10;82.90;99282.50;5051731;28;20224;-70
2023/05/28 08:14:00;;;;;;;3.60;2.63;;;;;;;21.92;83.48;99275.00;5050180;28;20192;-74
2023/05/28 08:16:27;;;;;;;5.43;3.47;;;;;;;21.83;84.28;99261.22;5044561;28;20251;-74
2023/05/28 08:18:54;;;;;;;3.77;3.00;;;;;;;21.81;86.34;99268.00;5049937;28;20282;-73
2023/05/28 08:21:20;;;;;;;3.50;3.20;;;;;;;21.76;85.66;99270.72;5049665;28;20557;-75
2023/05/28 08:23:47;;;;;;;4.50;4.20;;;;;;;21.68;87.01;99269.31;5048655;28;20239;-72
2023/05/28 08:26:14;;;;;;;8.07;3.90;;;;;;;21.58;87.56;99258.53;5038744;28;20673;-70
2023/05/28 08:28:41;;;;;;;3.30;3.03;;;;;;;21.61;87.28;99258.00;5031037;28;20259;-71
2023/05/28 08:31:09;;;;;;;3.50;3.30;;;;;;;21.66;89.26;99260.69;5030307;28;20243;-72
2023/05/28 08:33:36;;;;;;;4.73;4.43;;;;;;;21.62;89.86;99254.19;5034577;28;20205;-68
2023/05/28 08:36:02;;;;;;;3.90;3.60;;;;;;;21.93;87.77;99250.34;5041352;28;20220;-72
2023/05/28 08:38:30;;;;;;;3.27;3.07;;;;;;;22.25;86.49;99258.91;5032956;28;20205;-69
2023/05/28 08:40:57;;;;;;;3.97;3.60;;;;;;;22.53;85.36;99260.97;5034468;28;20197;-69
2023/05/28 08:43:24;;;;;;;3.60;3.23;;;;;;;22.77;84.04;99259.22;5034691;28;20272;-69
2023/05/28 08:45:52;;;;;;;4.13;2.90;;;;;;;22.82;83.59;99256.47;5034186;28;20194;-69
2023/05/28 08:48:21;;;;;;;2.87;2.77;;;;;;;22.97;82.21;99261.78;5034057;28;20251;-68
2023/05/28 08:50:50;;;;;;;3.30;3.00;;;;;;;23.21;81.67;99257.31;5034968;28;20262;-69
2023/05/28 08:53:21;;;;;;;2.37;2.23;;;;;;;23.24;79.88;99264.06;5034196;28;20229;-68
2023/05/28 08:55:48;;;;;;;3.30;3.10;;;;;;;23.36;82.41;99259.88;5031045;28;20195;-69
2023/05/28 08:58:17;;;;;;;3.20;3.07;;;;;;;23.50;81.89;99258.13;5028906;28;20259;-69
2023/05/28 09:00:43;;;;;;;3.10;2.43;;;;;;;23.70;81.09;99257.94;5032380;28;20201;-69
2023/05/28 09:03:10;;;;;;;3.00;2.23;;;;;;;23.95;77.06;99274.00;5016545;28;20563;-69
2023/05/28 09:05:39;;;;;;;2.00;1.90;;;;;;;24.10;76.74;99262.94;5034720;28;20198;-69
2023/05/28 09:08:08;;;;;;;2.50;2.27;;;;;;;24.31;76.47;99272.47;5038313;28;20223;-69
2023/05/28 09:10:34;;;;;;;2.33;2.23;;;;;;;24.51;75.39;99276.84;5052778;28;20202;-67
2023/05/28 09:13:02;;;;;;;2.87;2.40;;;;;;;24.52;75.74;99262.97;5052966;28;20710;-67
2023/05/28 09:15:29;;;;;;;5.73;2.83;;;;;;;24.44;76.38;99266.34;5054186;28;20281;-67
2023/05/28 09:17:59;;;;;;;2.57;2.27;;;;;;;24.63;75.48;99267.19;5043489;28;20345;-69
2023/05/28 09:20:26;;;;;;;2.63;2.33;;;;;;;24.64;74.89;99263.38;5054236;28;20203;-67
2023/05/28 09:23:01;;;;;;;2.33;2.13;;;;;;;24.46;72.88;99257.91;5085950;28;20230;-67
2023/05/28 09:25:28;;;;;;;2.00;1.90;;;;;;;24.25;73.35;99267.38;5050647;28;20732;-69
2023/05/28 09:27:55;;;;;;;2.17;2.03;;;;;;;23.95;75.46;99256.88;5033847;28;20200;-70
2023/05/28 09:30:23;;;;;;;2.67;2.13;;;;;;;23.94;75.19;99255.28;5029609;28;20192;-67
2023/05/28 09:32:57;;;;;;;5.20;1.93;;;;;;;23.97;77.33;99244.63;5031795;28;20211;-69
2023/05/28 09:35:26;;;;;;;1.90;1.80;;;;;;;23.95;74.91;99262.31;5035972;28;20218;-68
2023/05/28 09:38:02;;;;;;;2.83;2.53;;;;;;;23.81;75.98;99254.00;5046245;28;20256;-66
2023/05/28 09:40:29;;;;;;;2.30;2.20;;;;;;;23.95;76.06;99257.69;5052733;28;20193;-67
2023/05/28 09:42:55;;;;;;;3.20;2.10;;;;;;;24.15;75.43;99252.03;5030185;28;20196;-69
2023/05/28 09:45:24;;;;;;;2.57;2.47;;;;;;;24.23;75.45;99242.44;5028633;28;20257;-68
2023/05/28 09:47:51;;;;;;;2.10;2.00;;;;;;;24.29;74.34;99252.94;5042089;28;20191;-68
2023/05/28 09:50:18;;;;;;;4.60;2.03;;;;;;;24.12;73.35;99262.66;5036798;28;20194;-68
2023/05/28 09:52:46;;;;;;;2.93;2.40;;;;;;;24.20;74.23;99249.25;5032281;28;20232;-68
2023/05/28 09:55:18;;;;;;;2.20;2.10;;;;;;;24.26;74.58;99250.81;5030448;28;20194;-67
2023/05/28 09:57:53;;;;;;;2.17;1.97;;;;;;;24.15;73.77;99252.03;5032064;28;20184;-67
2023/05/28 10:00:26;;;;;;;2.90;2.63;;;;;;;24.02;73.61;99241.84;5031450;28;20242;-67
2023/05/28 10:03:01;;;;;;;2.80;2.67;;;;;;;23.97;75.16;99236.50;5031364;28;20667;-67
2023/05/28 10:05:33;;;;;;;2.63;2.13;;;;;;;24.27;74.12;99233.44;5030009;28;20183;-68
2023/05/28 10:08:01;;;;;;;2.60;2.40;;;;;;;24.60;73.51;99235.19;5029490;28;20195;-68
2023/05/28 10:10:31;;;;;;;2.57;2.37;;;;;;;25.04;73.92;99227.44;5030559;28;20202;-71
2023/05/28 10:12:58;;;;;;;4.00;2.20;;;;;;;25.34;71.15;99233.50;5027250;28;20640;-68
2023/05/28 10:15:26;;;;;;;1.90;1.67;;;;;;;25.34;68.39;99242.47;5025749;28;20197;-68
2023/05/28 10:17:53;;;;;;;2.47;2.10;;;;;;;25.22;67.77;99227.69;5033365;28;20197;-70
2023/05/28 10:20:20;;;;;;;2.50;1.67;;;;;;;25.39;69.41;99222.56;5033522;28;20259;-68
2023/05/28 10:22:49;;;;;;;1.83;1.73;;;;;;;25.73;67.21;99229.28;5030158;28;20627;-68
2023/05/28 10:25:16;;;;;;;3.77;2.17;;;;;;;25.60;63.32;99218.38;5030426;28;20193;-68
2023/05/28 10:27:48;;;;;;;2.90;2.20;;;;;;;25.67;65.83;99224.19;5031556;28;20197;-67
2023/05/28 10:30:32;;;;;;;1.70;1.60;;;;;;;25.62;64.84;99211.50;5033223;28;20193;-68
2023/05/28 10:32:59;;;;;;;2.50;1.83;;;;;;;25.65;66.43;99199.22;5033294;28;20223;-67
2023/05/28 10:35:25;;;;;;;2.30;2.10;;;;;;;25.72;64.87;99200.41;5036079;28;20701;-67
2023/05/28 10:38:03;;;;;;;2.00;1.90;;;;;;;25.66;65.10;99190.75;5052771;28;20250;-67
2023/05/28 10:40:32;;;;;;;2.07;1.97;;;;;;;25.69;63.25;99197.50;5052039;28;20188;-67
2023/05/28 10:43:01;;;;;;;4.90;2.40;;;;;;;25.54;63.36;99192.34;5051368;28;20243;-67
2023/05/28 10:45:37;;;;;;;2.57;2.20;;;;;;;25.38;66.38;99171.97;5053123;28;20275;-67
2023/05/28 10:48:05;;;;;;;2.50;2.30;;;;;;;25.48;66.26;99172.59;5039797;28;20917;-68
2023/05/28 10:50:32;;;;;;;2.30;2.13;;;;;;;25.82;65.36;99188.53;5029950;28;20284;-68
2023/05/28 10:53:06;;;;;;;2.93;2.60;;;;;;;26.01;62.74;99192.78;5030130;28;20225;-68
2023/05/28 10:55:49;;;;;;;4.20;3.90;;;;;;;26.00;63.54;99184.97;5029860;28;20196;-68
2023/05/28 10:58:25;;;;;;;2.63;2.43;;;;;;;25.92;63.25;99188.34;5029697;28;20193;-69
2023/05/28 11:00:52;;;;;;;3.00;2.40;;;;;;;25.87;62.85;99188.44;5031315;28;20278;-68
2023/05/28 11:03:39;;;;;;;2.30;2.20;;;;;;;25.90;63.09;99190.56;5030335;28;20263;-68
2023/05/28 11:06:07;;;;;;;2.27;2.17;;;;;;;25.86;63.69;99200.44;5009411;28;20190;-68
2023/05/28 11:08:37;;;;;;;2.50;2.30;;;;;;;25.66;65.03;99209.81;5010973;28;20595;-70
2023/05/28 11:11:05;;;;;;;6.23;2.70;;;;;;;25.58;66.90;99196.91;5035893;28;20242;-70
2023/05/28 11:13:33;;;;;;;3.20;2.90;;;;;;;25.51;68.54;99191.03;5049854;28;20290;-71
2023/05/28 11:16:07;;;;;;;3.33;3.00;;;;;;;25.33;72.79;99185.66;5049442;28;20208;-72
2023/05/28 11:18:34;;;;;;;3.30;3.10;;;;;;;24.91;76.59;99175.75;5043240;28;20186;-72
2023/05/28 11:21:03;;;;;;;3.40;3.10;;;;;;;24.48;75.45;99177.75;5030231;28;20209;-71
2023/05/28 11:23:30;;;;;;;4.53;3.80;;;;;;;24.13;79.30;99172.78;5027480;28;20207;-72
2023/05/28 11:25:57;;;;;;;4.10;3.70;;;;;;;23.82;82.09;99171.53;5028121;28;20195;-71
2023/05/28 11:28:24;;;;;;;3.93;3.63;;;;;;;23.55;82.39;99165.88;5026646;28;20199;-73
2023/05/28 11:30:53;;;;;;;4.00;3.60;;;;;;;23.38;83.68;99157.41;5028995;28;20202;-73
2023/05/28 11:33:19;;;;;;;4.37;4.07;;;;;;;23.39;84.13;99164.41;5028588;28;20292;-73
2023/05/28 11:35:46;;;;;;;6.83;3.93;;;;;;;23.38;83.28;99167.41;5028892;28;20284;-73
2023/05/28 11:38:13;;;;;;;4.10;3.80;;;;;;;23.33;83.80;99157.44;5020056;28;20203;-73
2023/05/28 11:40:40;;;;;;;4.10;3.70;;;;;;;23.35;85.39;99151.72;5027309;28;20202;-72
2023/05/28 11:43:06;;;;;;;5.33;4.17;;;;;;;23.29;84.57;99153.69;5034274;28;20194;-73
2023/05/28 11:45:37;;;;;;;4.23;3.83;;;;;;;23.28;86.26;99154.78;5043782;28;20233;-72
2023/05/28 11:48:12;;;;;;;9.07;6.67;;;;;;;23.15;85.78;99155.41;5028875;28;20186;-72
2023/05/28 11:50:38;;;;;;;4.97;4.57;;;;;;;22.96;85.98;99156.41;5030621;28;20213;-70
2023/05/28 11:53:05;;;;;;;4.00;3.70;;;;;;;22.86;87.34;99156.47;5039351;28;20766;-70
2023/05/28 11:55:32;;;;;;;3.60;3.30;;;;;;;22.86;86.63;99156.47;5033178;28;20201;-69
2023/05/28 11:58:00;;;;;;;5.23;3.50;;;;;;;22.80;87.65;99163.88;5030397;28;20193;-69
2023/05/28 12:00:37;;;;;;;4.73;3.40;;;;;;;22.83;88.53;99149.72;5030032;28;20282;-70
2023/05/28 12:03:05;;;;;;;25.47;4.23;;;;;;;22.99;88.02;99156.63;5028898;28;20189;-69
2023/05/28 12:05:38;;;;;;;3.07;2.97;;;;;;;23.12;88.63;99155.97;5021876;28;20634;-70
2023/05/28 12:08:05;;;;;;;4.60;4.20;;;;;;;23.13;89.32;99154.09;5020053;28;20266;-69
2023/05/28 12:10:32;;;;;;;4.00;3.70;;;;;;;22.99;89.87;99153.94;5033847;28;20263;-69
2023/05/28 12:13:00;;;;;;;3.80;3.50;;;;;;;22.93;89.59;99160.50;5020885;28;20218;-68
2023/05/28 12:15:29;;;;;;;3.20;2.90;;;;;;;22.98;86.89;99170.47;5015629;28;20244;-69
2023/05/28 12:18:00;;;;;;;3.53;2.90;;;;;;;22.85;87.62;99166.53;5032300;28;20201;-71
2023/05/28 12:20:33;;;;;;;3.40;3.20;;;;;;;22.69;87.12;99178.56;5033420;28;20261;-69
2023/05/28 12:23:06;;;;;;;4.47;3.10;;;;;;;22.76;87.36;99178.25;5032913;28;20206;-69
2023/05/28 12:25:46;;;;;;;3.63;3.33;;;;;;;22.79;86.11;99178.47;5033715;28;20208;-68
2023/05/28 12:28:14;;;;;;;5.20;3.83;;;;;;;22.86;88.79;99168.13;5033154;28;20189;-68
2023/05/28 12:30:44;;;;;;;3.33;3.00;;;;;;;22.81;86.64;99175.47;5032664;28;20194;-69
2023/05/28 12:33:11;;;;;;;4.80;3.33;;;;;;;22.68;87.11;99168.81;5033655;28;20226;-68
2023/05/28 12:35:39;;;;;;;3.90;2.90;;;;;;;22.67;87.50;99174.53;5033869;28;20648;-68